sensor_id;sensor_type;location;lat;lon;timestamp;temperature;humidity
43089;DHT22;28709;52.030;5.652;2023-12-20T00:01:48;6.20;99.90
43089;DHT22;28709;52.030;5.652;2023-12-20T00:04:14;6.20;99.90
43089;DHT22;28709;52.030;5.652;2023-12-20T00:06:40;6.20;99.90
43089;DHT22;28709;52.030;5.652;2023-12-20T00:09:05;6.20;99.90
43089;DHT22;28709;52.030;5.652;2023-12-20T00:11:31;6.20;99.90
43089;DHT22;28709;52.030;5.652;2023-12-20T00:13:57;6.20;99.90
43089;DHT22;28709;52.030;5.652;2023-12-20T00:16:22;6.20;99.90
43089;DHT22;28709;52.030;5.652;2023-12-20T00:18:48;6.10;99.90
43089;DHT22;28709;52.030;5.652;2023-12-20T00:21:14;6.10;99.90
43089;DHT22;28709;52.030;5.652;2023-12-20T00:23:40;6.10;99.90
43089;DHT22;28709;52.030;5.652;2023-12-20T00:26:06;6.00;99.90
43089;DHT22;28709;52.030;5.652;2023-12-20T00:28:31;6.00;99.90
43089;DHT22;28709;52.030;5.652;2023-12-20T00:30:57;6.00;99.90
43089;DHT22;28709;52.030;5.652;2023-12-20T00:33:23;5.90;99.90
43089;DHT22;28709;52.030;5.652;2023-12-20T00:35:49;5.90;99.90
43089;DHT22;28709;52.030;5.652;2023-12-20T00:38:14;5.90;99.90
43089;DHT22;28709;52.030;5.652;2023-12-20T00:40:40;5.90;99.90
43089;DHT22;28709;52.030;5.652;2023-12-20T00:43:06;5.80;99.90
43089;DHT22;28709;52.030;5.652;2023-12-20T00:45:31;5.80;99.90
43089;DHT22;28709;52.030;5.652;2023-12-20T00:47:57;5.70;99.90
43089;DHT22;28709;52.030;5.652;2023-12-20T00:50:22;5.70;99.90
43089;DHT22;28709;52.030;5.652;2023-12-20T00:52:48;5.70;99.90
43089;DHT22;28709;52.030;5.652;2023-12-20T00:55:14;5.60;99.90
43089;DHT22;28709;52.030;5.652;2023-12-20T00:57:39;5.60;99.90
43089;DHT22;28709;52.030;5.652;2023-12-20T01:00:06;5.60;99.90
43089;DHT22;28709;52.030;5.652;2023-12-20T01:02:32;5.60;99.90
43089;DHT22;28709;52.030;5.652;2023-12-20T01:04:57;5.50;99.90
43089;DHT22;28709;52.030;5.652;2023-12-20T01:07:23;5.50;99.90
43089;DHT22;28709;52.030;5.652;2023-12-20T01:09:48;5.50;99.90
43089;DHT22;28709;52.030;5.652;2023-12-20T01:12:14;5.50;99.90
43089;DHT22;28709;52.030;5.652;2023-12-20T01:14:40;5.40;99.90
43089;DHT22;28709;52.030;5.652;2023-12-20T01:17:05;5.40;99.90
43089;DHT22;28709;52.030;5.652;2023-12-20T01:19:31;5.40;99.90
43089;DHT22;28709;52.030;5.652;2023-12-20T01:21:57;5.30;99.90
43089;DHT22;28709;52.030;5.652;2023-12-20T01:24:22;5.30;99.90
43089;DHT22;28709;52.030;5.652;2023-12-20T01:26:48;5.30;99.90
43089;DHT22;28709;52.030;5.652;2023-12-20T01:29:14;5.20;99.90
43089;DHT22;28709;52.030;5.652;2023-12-20T01:31:40;5.20;99.90
43089;DHT22;28709;52.030;5.652;2023-12-20T01:34:06;5.20;99.90
43089;DHT22;28709;52.030;5.652;2023-12-20T01:36:32;5.20;99.90
43089;DHT22;28709;52.030;5.652;2023-12-20T01:38:57;5.20;99.90
43089;DHT22;28709;52.030;5.652;2023-12-20T01:41:23;5.20;99.90
43089;DHT22;28709;52.030;5.652;2023-12-20T01:43:49;5.20;99.90
43089;DHT22;28709;52.030;5.652;2023-12-20T01:46:15;5.20;99.90
43089;DHT22;28709;52.030;5.652;2023-12-20T01:48:41;5.20;99.90
43089;DHT22;28709;52.030;5.652;2023-12-20T01:51:07;5.20;99.90
43089;DHT22;28709;52.030;5.652;2023-12-20T01:53:33;5.20;99.90
43089;DHT22;28709;52.030;5.652;2023-12-20T01:55:59;5.20;99.90
43089;DHT22;28709;52.030;5.652;2023-12-20T01:58:25;5.30;99.90
43089;DHT22;28709;52.030;5.652;2023-12-20T02:00:52;5.40;99.90
43089;DHT22;28709;52.030;5.652;2023-12-20T02:03:18;5.40;99.90
43089;DHT22;28709;52.030;5.652;2023-12-20T02:05:44;5.40;99.90
43089;DHT22;28709;52.030;5.652;2023-12-20T02:08:11;5.40;99.90
43089;DHT22;28709;52.030;5.652;2023-12-20T02:10:36;5.40;99.90
43089;DHT22;28709;52.030;5.652;2023-12-20T02:13:03;5.40;99.90
43089;DHT22;28709;52.030;5.652;2023-12-20T02:15:29;5.40;99.90
43089;DHT22;28709;52.030;5.652;2023-12-20T02:17:55;5.40;99.90
43089;DHT22;28709;52.030;5.652;2023-12-20T02:20:21;5.50;99.90
43089;DHT22;28709;52.030;5.652;2023-12-20T02:22:46;5.50;99.90
43089;DHT22;28709;52.030;5.652;2023-12-20T02:25:12;5.50;99.90
43089;DHT22;28709;52.030;5.652;2023-12-20T02:27:38;5.60;99.90
43089;DHT22;28709;52.030;5.652;2023-12-20T02:30:05;5.60;99.90
43089;DHT22;28709;52.030;5.652;2023-12-20T02:32:31;5.70;99.90
43089;DHT22;28709;52.030;5.652;2023-12-20T02:34:57;5.70;99.90
43089;DHT22;28709;52.030;5.652;2023-12-20T02:37:23;5.80;99.90
43089;DHT22;28709;52.030;5.652;2023-12-20T02:39:49;5.80;99.90
43089;DHT22;28709;52.030;5.652;2023-12-20T02:42:15;5.80;99.90
43089;DHT22;28709;52.030;5.652;2023-12-20T02:44:40;5.80;99.90
43089;DHT22;28709;52.030;5.652;2023-12-20T02:47:06;5.80;99.90
43089;DHT22;28709;52.030;5.652;2023-12-20T02:49:32;5.80;99.90
43089;DHT22;28709;52.030;5.652;2023-12-20T02:51:57;5.80;99.90
43089;DHT22;28709;52.030;5.652;2023-12-20T02:54:23;5.80;99.90
43089;DHT22;28709;52.030;5.652;2023-12-20T02:56:49;5.80;99.90
43089;DHT22;28709;52.030;5.652;2023-12-20T02:59:15;5.80;99.90
43089;DHT22;28709;52.030;5.652;2023-12-20T03:01:44;5.70;99.90
43089;DHT22;28709;52.030;5.652;2023-12-20T03:04:11;5.70;99.90
43089;DHT22;28709;52.030;5.652;2023-12-20T03:06:37;5.70;99.90
43089;DHT22;28709;52.030;5.652;2023-12-20T03:09:03;5.60;99.90
43089;DHT22;28709;52.030;5.652;2023-12-20T03:11:28;5.60;99.90
43089;DHT22;28709;52.030;5.652;2023-12-20T03:13:55;5.60;99.90
43089;DHT22;28709;52.030;5.652;2023-12-20T03:16:21;5.60;99.90
43089;DHT22;28709;52.030;5.652;2023-12-20T03:18:46;5.60;99.90
43089;DHT22;28709;52.030;5.652;2023-12-20T03:21:12;5.50;99.90
43089;DHT22;28709;52.030;5.652;2023-12-20T03:23:38;5.60;99.90
43089;DHT22;28709;52.030;5.652;2023-12-20T03:26:07;5.50;99.90
43089;DHT22;28709;52.030;5.652;2023-12-20T03:28:32;5.60;99.90
43089;DHT22;28709;52.030;5.652;2023-12-20T03:30:58;5.60;99.90
43089;DHT22;28709;52.030;5.652;2023-12-20T03:33:23;5.60;99.90
43089;DHT22;28709;52.030;5.652;2023-12-20T03:35:49;5.60;99.90
43089;DHT22;28709;52.030;5.652;2023-12-20T03:38:15;5.60;99.90
43089;DHT22;28709;52.030;5.652;2023-12-20T03:40:40;5.70;99.90
43089;DHT22;28709;52.030;5.652;2023-12-20T03:43:06;5.70;99.90
43089;DHT22;28709;52.030;5.652;2023-12-20T03:45:31;5.70;99.90
43089;DHT22;28709;52.030;5.652;2023-12-20T03:47:57;5.70;99.90
43089;DHT22;28709;52.030;5.652;2023-12-20T03:50:23;5.70;99.90
43089;DHT22;28709;52.030;5.652;2023-12-20T03:52:48;5.70;99.90
43089;DHT22;28709;52.030;5.652;2023-12-20T03:55:14;5.80;99.90
43089;DHT22;28709;52.030;5.652;2023-12-20T03:57:40;5.80;99.90
43089;DHT22;28709;52.030;5.652;2023-12-20T04:00:07;5.90;99.90
43089;DHT22;28709;52.030;5.652;2023-12-20T04:02:42;5.90;99.90
43089;DHT22;28709;52.030;5.652;2023-12-20T04:05:09;5.90;99.90
43089;DHT22;28709;52.030;5.652;2023-12-20T04:07:37;5.90;99.90
43089;DHT22;28709;52.030;5.652;2023-12-20T04:10:04;5.90;99.90
43089;DHT22;28709;52.030;5.652;2023-12-20T04:12:29;6.00;99.90
43089;DHT22;28709;52.030;5.652;2023-12-20T04:14:56;6.00;99.90
43089;DHT22;28709;52.030;5.652;2023-12-20T04:17:21;6.00;99.90
43089;DHT22;28709;52.030;5.652;2023-12-20T04:19:50;6.00;99.90
43089;DHT22;28709;52.030;5.652;2023-12-20T04:22:16;5.90;99.90
43089;DHT22;28709;52.030;5.652;2023-12-20T04:24:42;5.90;99.90
43089;DHT22;28709;52.030;5.652;2023-12-20T04:27:08;5.90;99.90
43089;DHT22;28709;52.030;5.652;2023-12-20T04:29:34;5.90;99.90
43089;DHT22;28709;52.030;5.652;2023-12-20T04:31:59;6.00;99.90
43089;DHT22;28709;52.030;5.652;2023-12-20T04:34:25;6.00;99.90
43089;DHT22;28709;52.030;5.652;2023-12-20T04:36:51;6.00;99.90
43089;DHT22;28709;52.030;5.652;2023-12-20T04:39:17;6.10;99.90
43089;DHT22;28709;52.030;5.652;2023-12-20T04:41:42;6.10;99.90
43089;DHT22;28709;52.030;5.652;2023-12-20T04:44:08;6.10;99.90
43089;DHT22;28709;52.030;5.652;2023-12-20T04:46:34;6.10;99.90
43089;DHT22;28709;52.030;5.652;2023-12-20T04:48:59;6.10;99.90
43089;DHT22;28709;52.030;5.652;2023-12-20T04:51:25;6.20;99.90
43089;DHT22;28709;52.030;5.652;2023-12-20T04:53:50;6.30;99.90
43089;DHT22;28709;52.030;5.652;2023-12-20T04:56:16;6.30;99.90
43089;DHT22;28709;52.030;5.652;2023-12-20T04:58:45;6.40;99.90
43089;DHT22;28709;52.030;5.652;2023-12-20T05:01:11;6.40;99.90
43089;DHT22;28709;52.030;5.652;2023-12-20T05:03:37;6.50;99.90
43089;DHT22;28709;52.030;5.652;2023-12-20T05:06:03;6.50;99.90
43089;DHT22;28709;52.030;5.652;2023-12-20T05:08:29;6.50;99.90
43089;DHT22;28709;52.030;5.652;2023-12-20T05:10:55;6.50;99.90
43089;DHT22;28709;52.030;5.652;2023-12-20T05:13:20;6.60;99.90
43089;DHT22;28709;52.030;5.652;2023-12-20T05:15:46;6.60;99.90
43089;DHT22;28709;52.030;5.652;2023-12-20T05:18:12;6.70;99.90
43089;DHT22;28709;52.030;5.652;2023-12-20T05:20:38;6.70;99.90
43089;DHT22;28709;52.030;5.652;2023-12-20T05:23:04;6.70;99.90
43089;DHT22;28709;52.030;5.652;2023-12-20T05:25:30;6.70;99.90
43089;DHT22;28709;52.030;5.652;2023-12-20T05:27:56;6.80;99.90
43089;DHT22;28709;52.030;5.652;2023-12-20T05:30:22;6.80;99.90
43089;DHT22;28709;52.030;5.652;2023-12-20T05:32:47;6.80;99.90
43089;DHT22;28709;52.030;5.652;2023-12-20T05:35:13;6.90;99.90
43089;DHT22;28709;52.030;5.652;2023-12-20T05:37:39;6.90;99.90
43089;DHT22;28709;52.030;5.652;2023-12-20T05:40:05;6.90;99.90
43089;DHT22;28709;52.030;5.652;2023-12-20T05:42:31;6.90;99.90
43089;DHT22;28709;52.030;5.652;2023-12-20T05:44:56;6.90;99.90
43089;DHT22;28709;52.030;5.652;2023-12-20T05:47:22;7.00;99.90
43089;DHT22;28709;52.030;5.652;2023-12-20T05:49:48;7.00;99.90
43089;DHT22;28709;52.030;5.652;2023-12-20T05:52:13;7.00;99.90
43089;DHT22;28709;52.030;5.652;2023-12-20T05:54:40;7.00;99.90
43089;DHT22;28709;52.030;5.652;2023-12-20T05:57:05;7.00;99.90
43089;DHT22;28709;52.030;5.652;2023-12-20T05:59:31;7.00;99.90
43089;DHT22;28709;52.030;5.652;2023-12-20T06:01:57;7.00;99.90
43089;DHT22;28709;52.030;5.652;2023-12-20T06:04:22;7.00;99.90
43089;DHT22;28709;52.030;5.652;2023-12-20T06:06:48;7.10;99.90
43089;DHT22;28709;52.030;5.652;2023-12-20T06:09:14;7.10;99.90
43089;DHT22;28709;52.030;5.652;2023-12-20T06:11:40;7.00;99.90
43089;DHT22;28709;52.030;5.652;2023-12-20T06:14:06;7.00;99.90
43089;DHT22;28709;52.030;5.652;2023-12-20T06:16:32;7.10;99.90
43089;DHT22;28709;52.030;5.652;2023-12-20T06:18:57;7.10;99.90
43089;DHT22;28709;52.030;5.652;2023-12-20T06:21:23;7.00;99.90
43089;DHT22;28709;52.030;5.652;2023-12-20T06:23:48;7.10;99.90
43089;DHT22;28709;52.030;5.652;2023-12-20T06:26:14;7.10;99.90
43089;DHT22;28709;52.030;5.652;2023-12-20T06:28:40;7.10;99.90
43089;DHT22;28709;52.030;5.652;2023-12-20T06:31:05;7.10;99.90
43089;DHT22;28709;52.030;5.652;2023-12-20T06:33:31;7.10;99.90
43089;DHT22;28709;52.030;5.652;2023-12-20T06:35:57;7.10;99.90
43089;DHT22;28709;52.030;5.652;2023-12-20T06:38:23;7.10;99.90
43089;DHT22;28709;52.030;5.652;2023-12-20T06:40:48;7.10;99.90
43089;DHT22;28709;52.030;5.652;2023-12-20T06:43:14;7.10;99.90
43089;DHT22;28709;52.030;5.652;2023-12-20T06:45:40;7.10;99.90
43089;DHT22;28709;52.030;5.652;2023-12-20T06:48:06;7.10;99.90
43089;DHT22;28709;52.030;5.652;2023-12-20T06:50:32;7.10;99.90
43089;DHT22;28709;52.030;5.652;2023-12-20T06:52:57;7.10;99.90
43089;DHT22;28709;52.030;5.652;2023-12-20T06:55:23;7.10;99.90
43089;DHT22;28709;52.030;5.652;2023-12-20T06:57:49;7.10;99.90
43089;DHT22;28709;52.030;5.652;2023-12-20T07:00:15;7.10;99.90
43089;DHT22;28709;52.030;5.652;2023-12-20T07:02:40;7.10;99.90
43089;DHT22;28709;52.030;5.652;2023-12-20T07:05:06;7.10;99.90
43089;DHT22;28709;52.030;5.652;2023-12-20T07:07:32;7.20;99.90
43089;DHT22;28709;52.030;5.652;2023-12-20T07:09:58;7.20;99.90
43089;DHT22;28709;52.030;5.652;2023-12-20T07:12:23;7.20;99.90
43089;DHT22;28709;52.030;5.652;2023-12-20T07:14:49;7.20;99.90
43089;DHT22;28709;52.030;5.652;2023-12-20T07:17:14;7.20;99.90
43089;DHT22;28709;52.030;5.652;2023-12-20T07:19:41;7.20;99.90
43089;DHT22;28709;52.030;5.652;2023-12-20T07:22:07;7.20;99.90
43089;DHT22;28709;52.030;5.652;2023-12-20T07:24:33;7.20;99.90
43089;DHT22;28709;52.030;5.652;2023-12-20T07:27:02;7.20;99.90
43089;DHT22;28709;52.030;5.652;2023-12-20T07:29:28;7.30;99.90
43089;DHT22;28709;52.030;5.652;2023-12-20T07:31:54;7.30;99.90
43089;DHT22;28709;52.030;5.652;2023-12-20T07:34:22;7.30;99.90
43089;DHT22;28709;52.030;5.652;2023-12-20T07:36:48;7.30;99.90
43089;DHT22;28709;52.030;5.652;2023-12-20T07:39:14;7.30;99.90
43089;DHT22;28709;52.030;5.652;2023-12-20T07:41:40;7.30;99.90
43089;DHT22;28709;52.030;5.652;2023-12-20T07:44:06;7.30;99.90
43089;DHT22;28709;52.030;5.652;2023-12-20T07:46:32;7.40;99.90
43089;DHT22;28709;52.030;5.652;2023-12-20T07:48:57;7.40;99.90
43089;DHT22;28709;52.030;5.652;2023-12-20T07:51:23;7.40;99.90
43089;DHT22;28709;52.030;5.652;2023-12-20T07:53:49;7.40;99.90
43089;DHT22;28709;52.030;5.652;2023-12-20T07:56:18;7.40;99.90
43089;DHT22;28709;52.030;5.652;2023-12-20T07:58:45;7.40;99.90
43089;DHT22;28709;52.030;5.652;2023-12-20T08:01:12;7.40;99.90
43089;DHT22;28709;52.030;5.652;2023-12-20T08:03:38;7.40;99.90
43089;DHT22;28709;52.030;5.652;2023-12-20T08:06:04;7.50;99.90
43089;DHT22;28709;52.030;5.652;2023-12-20T08:08:30;7.50;99.90
43089;DHT22;28709;52.030;5.652;2023-12-20T08:10:55;7.50;99.90
43089;DHT22;28709;52.030;5.652;2023-12-20T08:13:23;7.50;99.90
43089;DHT22;28709;52.030;5.652;2023-12-20T08:15:51;7.50;99.90
43089;DHT22;28709;52.030;5.652;2023-12-20T08:18:17;7.50;99.90
43089;DHT22;28709;52.030;5.652;2023-12-20T08:20:43;7.50;99.90
43089;DHT22;28709;52.030;5.652;2023-12-20T08:23:08;7.50;99.90
43089;DHT22;28709;52.030;5.652;2023-12-20T08:25:34;7.50;99.90
43089;DHT22;28709;52.030;5.652;2023-12-20T08:28:02;7.50;99.90
43089;DHT22;28709;52.030;5.652;2023-12-20T08:30:28;7.50;99.90
43089;DHT22;28709;52.030;5.652;2023-12-20T08:32:55;7.60;99.90
43089;DHT22;28709;52.030;5.652;2023-12-20T08:35:20;7.60;99.90
43089;DHT22;28709;52.030;5.652;2023-12-20T08:37:46;7.60;99.90
43089;DHT22;28709;52.030;5.652;2023-12-20T08:40:12;7.60;99.90
43089;DHT22;28709;52.030;5.652;2023-12-20T08:42:38;7.60;99.90
43089;DHT22;28709;52.030;5.652;2023-12-20T08:45:03;7.60;99.90
43089;DHT22;28709;52.030;5.652;2023-12-20T08:47:29;7.60;99.90
43089;DHT22;28709;52.030;5.652;2023-12-20T08:49:55;7.70;99.90
43089;DHT22;28709;52.030;5.652;2023-12-20T08:52:23;7.70;99.90
43089;DHT22;28709;52.030;5.652;2023-12-20T08:54:50;7.70;99.90
43089;DHT22;28709;52.030;5.652;2023-12-20T08:57:22;7.70;99.90
43089;DHT22;28709;52.030;5.652;2023-12-20T08:59:50;7.70;99.90
43089;DHT22;28709;52.030;5.652;2023-12-20T09:02:16;7.70;99.90
43089;DHT22;28709;52.030;5.652;2023-12-20T09:04:42;7.70;99.90
43089;DHT22;28709;52.030;5.652;2023-12-20T09:07:24;7.70;99.90
43089;DHT22;28709;52.030;5.652;2023-12-20T09:09:51;7.70;99.90
43089;DHT22;28709;52.030;5.652;2023-12-20T09:12:20;7.70;99.90
43089;DHT22;28709;52.030;5.652;2023-12-20T09:14:47;7.60;99.90
43089;DHT22;28709;52.030;5.652;2023-12-20T09:17:13;7.70;99.90
43089;DHT22;28709;52.030;5.652;2023-12-20T09:19:38;7.60;99.90
43089;DHT22;28709;52.030;5.652;2023-12-20T09:22:06;7.60;99.90
43089;DHT22;28709;52.030;5.652;2023-12-20T09:24:31;7.60;99.90
43089;DHT22;28709;52.030;5.652;2023-12-20T09:26:57;7.50;99.90
43089;DHT22;28709;52.030;5.652;2023-12-20T09:29:23;7.50;99.90
43089;DHT22;28709;52.030;5.652;2023-12-20T09:31:50;7.50;99.90
43089;DHT22;28709;52.030;5.652;2023-12-20T09:34:16;7.40;99.90
43089;DHT22;28709;52.030;5.652;2023-12-20T09:36:42;7.40;99.90
43089;DHT22;28709;52.030;5.652;2023-12-20T09:39:15;7.40;99.90
43089;DHT22;28709;52.030;5.652;2023-12-20T09:41:45;7.30;99.90
43089;DHT22;28709;52.030;5.652;2023-12-20T09:44:16;7.30;99.90
43089;DHT22;28709;52.030;5.652;2023-12-20T09:46:44;7.30;99.90
43089;DHT22;28709;52.030;5.652;2023-12-20T09:49:11;7.30;99.90
43089;DHT22;28709;52.030;5.652;2023-12-20T09:51:37;7.40;99.90
43089;DHT22;28709;52.030;5.652;2023-12-20T09:54:03;7.40;99.90
43089;DHT22;28709;52.030;5.652;2023-12-20T09:56:30;7.50;99.90
43089;DHT22;28709;52.030;5.652;2023-12-20T09:58:56;7.60;99.90
43089;DHT22;28709;52.030;5.652;2023-12-20T10:01:23;7.60;99.90
43089;DHT22;28709;52.030;5.652;2023-12-20T10:03:51;7.70;99.90
43089;DHT22;28709;52.030;5.652;2023-12-20T10:06:19;7.70;99.90
43089;DHT22;28709;52.030;5.652;2023-12-20T10:08:45;7.80;99.90
43089;DHT22;28709;52.030;5.652;2023-12-20T10:11:10;7.80;99.90
43089;DHT22;28709;52.030;5.652;2023-12-20T10:13:40;7.90;99.90
43089;DHT22;28709;52.030;5.652;2023-12-20T10:16:07;7.90;99.90
43089;DHT22;28709;52.030;5.652;2023-12-20T10:18:35;8.00;99.90
43089;DHT22;28709;52.030;5.652;2023-12-20T10:21:01;8.10;99.90
43089;DHT22;28709;52.030;5.652;2023-12-20T10:23:29;8.10;99.90
43089;DHT22;28709;52.030;5.652;2023-12-20T10:26:01;8.20;99.90
43089;DHT22;28709;52.030;5.652;2023-12-20T10:28:27;8.20;99.90
43089;DHT22;28709;52.030;5.652;2023-12-20T10:30:58;8.30;99.90
43089;DHT22;28709;52.030;5.652;2023-12-20T10:33:27;8.30;99.90
43089;DHT22;28709;52.030;5.652;2023-12-20T10:35:57;8.30;99.90
43089;DHT22;28709;52.030;5.652;2023-12-20T10:38:23;8.30;99.90
43089;DHT22;28709;52.030;5.652;2023-12-20T10:40:50;8.40;99.90
43089;DHT22;28709;52.030;5.652;2023-12-20T10:43:17;8.40;99.90
43089;DHT22;28709;52.030;5.652;2023-12-20T10:45:43;8.40;99.90
43089;DHT22;28709;52.030;5.652;2023-12-20T10:48:10;8.50;99.90
43089;DHT22;28709;52.030;5.652;2023-12-20T10:50:37;8.50;99.90
43089;DHT22;28709;52.030;5.652;2023-12-20T10:53:06;8.50;99.90
43089;DHT22;28709;52.030;5.652;2023-12-20T10:55:32;8.60;99.90
43089;DHT22;28709;52.030;5.652;2023-12-20T10:58:09;8.60;99.90
43089;DHT22;28709;52.030;5.652;2023-12-20T11:00:40;8.60;99.90
43089;DHT22;28709;52.030;5.652;2023-12-20T11:03:10;8.70;99.90
43089;DHT22;28709;52.030;5.652;2023-12-20T11:05:44;8.70;99.90
43089;DHT22;28709;52.030;5.652;2023-12-20T11:08:32;8.80;99.90
43089;DHT22;28709;52.030;5.652;2023-12-20T11:14:15;9.00;99.90
43089;DHT22;28709;52.030;5.652;2023-12-20T11:16:42;9.10;99.90
43089;DHT22;28709;52.030;5.652;2023-12-20T11:19:08;9.10;99.90
43089;DHT22;28709;52.030;5.652;2023-12-20T11:21:34;9.20;99.90
43089;DHT22;28709;52.030;5.652;2023-12-20T11:24:00;9.20;99.90
43089;DHT22;28709;52.030;5.652;2023-12-20T11:26:27;9.30;99.90
43089;DHT22;28709;52.030;5.652;2023-12-20T11:28:54;9.30;99.90
43089;DHT22;28709;52.030;5.652;2023-12-20T11:31:20;9.30;99.90
43089;DHT22;28709;52.030;5.652;2023-12-20T11:33:46;9.30;99.90
43089;DHT22;28709;52.030;5.652;2023-12-20T11:36:19;9.20;99.90
43089;DHT22;28709;52.030;5.652;2023-12-20T11:38:58;9.20;99.90
43089;DHT22;28709;52.030;5.652;2023-12-20T11:41:25;9.20;99.90
43089;DHT22;28709;52.030;5.652;2023-12-20T11:43:55;9.20;99.90
43089;DHT22;28709;52.030;5.652;2023-12-20T11:46:21;9.20;99.90
43089;DHT22;28709;52.030;5.652;2023-12-20T11:48:48;9.20;99.90
43089;DHT22;28709;52.030;5.652;2023-12-20T11:51:14;9.30;99.90
43089;DHT22;28709;52.030;5.652;2023-12-20T11:53:42;9.30;99.90
43089;DHT22;28709;52.030;5.652;2023-12-20T11:56:09;9.30;99.90
43089;DHT22;28709;52.030;5.652;2023-12-20T11:58:36;9.40;99.90
43089;DHT22;28709;52.030;5.652;2023-12-20T12:01:02;9.40;99.90
43089;DHT22;28709;52.030;5.652;2023-12-20T12:03:29;9.40;99.90
43089;DHT22;28709;52.030;5.652;2023-12-20T12:05:55;9.50;99.90
43089;DHT22;28709;52.030;5.652;2023-12-20T12:08:21;9.50;99.90
43089;DHT22;28709;52.030;5.652;2023-12-20T12:10:46;9.70;99.90
43089;DHT22;28709;52.030;5.652;2023-12-20T12:13:12;9.80;99.90
43089;DHT22;28709;52.030;5.652;2023-12-20T12:15:39;9.80;99.90
43089;DHT22;28709;52.030;5.652;2023-12-20T12:18:07;9.80;99.90
43089;DHT22;28709;52.030;5.652;2023-12-20T12:20:33;9.80;99.90
43089;DHT22;28709;52.030;5.652;2023-12-20T12:22:59;9.80;99.90
43089;DHT22;28709;52.030;5.652;2023-12-20T12:25:25;9.70;99.90
43089;DHT22;28709;52.030;5.652;2023-12-20T12:27:51;9.70;99.90
43089;DHT22;28709;52.030;5.652;2023-12-20T12:30:17;9.60;99.90
43089;DHT22;28709;52.030;5.652;2023-12-20T12:32:47;9.50;99.90
43089;DHT22;28709;52.030;5.652;2023-12-20T12:35:13;9.50;99.90
43089;DHT22;28709;52.030;5.652;2023-12-20T12:37:39;9.50;99.90
43089;DHT22;28709;52.030;5.652;2023-12-20T12:40:09;9.50;99.90
43089;DHT22;28709;52.030;5.652;2023-12-20T12:42:36;9.40;99.90
43089;DHT22;28709;52.030;5.652;2023-12-20T12:45:02;9.50;99.90
43089;DHT22;28709;52.030;5.652;2023-12-20T12:47:28;9.50;99.90
43089;DHT22;28709;52.030;5.652;2023-12-20T12:49:54;9.50;99.90
43089;DHT22;28709;52.030;5.652;2023-12-20T12:52:20;9.50;99.90
43089;DHT22;28709;52.030;5.652;2023-12-20T12:54:45;9.50;99.90
43089;DHT22;28709;52.030;5.652;2023-12-20T12:57:13;9.50;99.90
43089;DHT22;28709;52.030;5.652;2023-12-20T12:59:39;9.50;99.90
43089;DHT22;28709;52.030;5.652;2023-12-20T13:02:05;9.60;99.90
43089;DHT22;28709;52.030;5.652;2023-12-20T13:04:30;9.60;99.90
43089;DHT22;28709;52.030;5.652;2023-12-20T13:06:56;9.60;99.90
43089;DHT22;28709;52.030;5.652;2023-12-20T13:09:23;9.60;99.90
43089;DHT22;28709;52.030;5.652;2023-12-20T13:11:48;9.60;99.90
43089;DHT22;28709;52.030;5.652;2023-12-20T13:14:14;9.60;99.90
43089;DHT22;28709;52.030;5.652;2023-12-20T13:16:42;9.60;99.90
43089;DHT22;28709;52.030;5.652;2023-12-20T13:19:08;9.60;99.90
43089;DHT22;28709;52.030;5.652;2023-12-20T13:21:35;9.70;99.90
43089;DHT22;28709;52.030;5.652;2023-12-20T13:24:01;9.60;99.90
43089;DHT22;28709;52.030;5.652;2023-12-20T13:26:26;9.60;99.90
43089;DHT22;28709;52.030;5.652;2023-12-20T13:28:53;9.50;99.90
43089;DHT22;28709;52.030;5.652;2023-12-20T13:31:19;9.50;99.90
43089;DHT22;28709;52.030;5.652;2023-12-20T13:33:45;9.50;99.90
43089;DHT22;28709;52.030;5.652;2023-12-20T13:36:11;9.50;99.90
43089;DHT22;28709;52.030;5.652;2023-12-20T13:38:37;9.50;99.90
43089;DHT22;28709;52.030;5.652;2023-12-20T13:41:03;9.50;99.90
43089;DHT22;28709;52.030;5.652;2023-12-20T13:43:30;9.50;99.90
43089;DHT22;28709;52.030;5.652;2023-12-20T13:45:58;9.50;99.90
43089;DHT22;28709;52.030;5.652;2023-12-20T13:48:24;9.40;99.90
43089;DHT22;28709;52.030;5.652;2023-12-20T13:50:49;9.40;99.90
43089;DHT22;28709;52.030;5.652;2023-12-20T13:53:15;9.40;99.90
43089;DHT22;28709;52.030;5.652;2023-12-20T13:55:41;9.40;99.90
43089;DHT22;28709;52.030;5.652;2023-12-20T13:58:07;9.40;99.90
43089;DHT22;28709;52.030;5.652;2023-12-20T14:00:32;9.40;99.90
43089;DHT22;28709;52.030;5.652;2023-12-20T14:02:58;9.40;99.90
43089;DHT22;28709;52.030;5.652;2023-12-20T14:05:24;9.50;99.90
43089;DHT22;28709;52.030;5.652;2023-12-20T14:07:50;9.50;99.90
43089;DHT22;28709;52.030;5.652;2023-12-20T14:10:16;9.40;99.90
43089;DHT22;28709;52.030;5.652;2023-12-20T14:12:42;9.40;99.90
43089;DHT22;28709;52.030;5.652;2023-12-20T14:15:08;9.50;99.90
43089;DHT22;28709;52.030;5.652;2023-12-20T14:17:40;9.50;99.90
43089;DHT22;28709;52.030;5.652;2023-12-20T14:20:08;9.40;99.90
43089;DHT22;28709;52.030;5.652;2023-12-20T14:22:34;9.50;99.90
43089;DHT22;28709;52.030;5.652;2023-12-20T14:24:59;9.50;99.90
43089;DHT22;28709;52.030;5.652;2023-12-20T14:27:26;9.50;99.90
43089;DHT22;28709;52.030;5.652;2023-12-20T14:29:53;9.40;99.90
43089;DHT22;28709;52.030;5.652;2023-12-20T14:32:19;9.40;99.90
43089;DHT22;28709;52.030;5.652;2023-12-20T14:34:45;9.40;99.90
43089;DHT22;28709;52.030;5.652;2023-12-20T14:37:11;9.40;99.90
43089;DHT22;28709;52.030;5.652;2023-12-20T14:39:37;9.40;99.90
43089;DHT22;28709;52.030;5.652;2023-12-20T14:42:07;9.40;99.90
43089;DHT22;28709;52.030;5.652;2023-12-20T14:44:37;9.40;99.90
43089;DHT22;28709;52.030;5.652;2023-12-20T14:47:03;9.40;99.90
43089;DHT22;28709;52.030;5.652;2023-12-20T14:49:30;9.40;99.90
43089;DHT22;28709;52.030;5.652;2023-12-20T14:51:55;9.40;99.90
43089;DHT22;28709;52.030;5.652;2023-12-20T14:54:21;9.40;99.90
43089;DHT22;28709;52.030;5.652;2023-12-20T14:56:47;9.40;99.90
43089;DHT22;28709;52.030;5.652;2023-12-20T14:59:13;9.40;99.90
43089;DHT22;28709;52.030;5.652;2023-12-20T15:01:39;9.40;99.90
43089;DHT22;28709;52.030;5.652;2023-12-20T15:04:06;9.30;99.90
43089;DHT22;28709;52.030;5.652;2023-12-20T15:06:32;9.30;99.90
43089;DHT22;28709;52.030;5.652;2023-12-20T15:08:59;9.30;99.90
43089;DHT22;28709;52.030;5.652;2023-12-20T15:11:25;9.20;99.90
43089;DHT22;28709;52.030;5.652;2023-12-20T15:13:52;9.20;99.90
43089;DHT22;28709;52.030;5.652;2023-12-20T15:16:22;9.20;99.90
43089;DHT22;28709;52.030;5.652;2023-12-20T15:18:48;9.20;99.90
43089;DHT22;28709;52.030;5.652;2023-12-20T15:21:14;9.20;99.90
43089;DHT22;28709;52.030;5.652;2023-12-20T15:23:40;9.10;99.90
43089;DHT22;28709;52.030;5.652;2023-12-20T15:26:20;9.10;99.90
43089;DHT22;28709;52.030;5.652;2023-12-20T15:28:46;9.10;99.90
43089;DHT22;28709;52.030;5.652;2023-12-20T15:31:11;9.10;99.90
43089;DHT22;28709;52.030;5.652;2023-12-20T15:33:38;9.00;99.90
43089;DHT22;28709;52.030;5.652;2023-12-20T15:36:05;9.00;99.90
43089;DHT22;28709;52.030;5.652;2023-12-20T15:38:30;9.00;99.90
43089;DHT22;28709;52.030;5.652;2023-12-20T15:40:56;8.90;99.90
43089;DHT22;28709;52.030;5.652;2023-12-20T15:43:22;8.90;99.90